Houston, Texas
Traffic Map
Current Weather Conditions
Houston, Texas
Broken Clouds
Broken Clouds
70°
Feels Like: 70°
Wind Chill: 70° Ceiling: 3400
Heat Index: 70° Visibility: 10mi
Dew Point: 55° Wind: 9mph
Humidity: 60% Direction: 30° (NNE)
Pressure: 30.06in Gusts: 22mph
Raw Report DataKMCJ 171955Z AUTO 03008G19KT 10SM SCT027 BKN034 BKN070 21/13 A3006 RMK AO1
Traffic Incident Summary
Active as of:
Severity:
Category:
InformationThere was an issue retrieving the traffic information for this location. Please try a different location or try again shortly.
Advertisements
At Last! Intellicast now available for iPhone and Android